Time;durP1;ratioP1;P1;durP2;ratioP2;P2;SDS_P1;SDS_P2;PMS_P1;PMS_P2;Temp;Humidity;BMP_temperature;BMP_pressure;BME280_temperature;BME280_humidity;BME280_pressure;Samples;Min_cycle;Max_cycle;Signal;HPM_P1;HPM_P2
2022/05/03 00:01:48;;;;;;;6.55;4.97;;;13.90;95.70;;;;;;4965273;28;20054;-67
2022/05/03 00:04:39;;;;;;;5.90;4.78;;;13.90;95.70;;;;;;4967345;28;20027;-68
2022/05/03 00:07:23;;;;;;;7.95;4.78;;;13.90;95.60;;;;;;4971409;28;20023;-68
2022/05/03 00:10:01;;;;;;;6.22;4.40;;;13.80;96.00;;;;;;4967104;28;20026;-67
2022/05/03 00:12:37;;;;;;;7.80;4.90;;;13.90;95.80;;;;;;4985676;28;20077;-68
2022/05/03 00:15:05;;;;;;;8.02;5.22;;;13.80;96.00;;;;;;4968097;28;20479;-67
2022/05/03 00:17:32;;;;;;;7.25;5.93;;;13.80;94.70;;;;;;4968247;28;20035;-67
2022/05/03 00:19:58;;;;;;;5.93;5.05;;;13.70;95.60;;;;;;4967851;28;20027;-68
2022/05/03 00:22:24;;;;;;;5.85;5.15;;;13.60;96.00;;;;;;4964156;28;20496;-68
2022/05/03 00:24:54;;;;;;;7.28;5.53;;;13.50;96.10;;;;;;4970557;28;20076;-67
2022/05/03 00:27:24;;;;;;;6.03;4.80;;;13.50;96.00;;;;;;4964261;28;20042;-67
2022/05/03 00:29:52;;;;;;;6.43;4.78;;;13.40;96.20;;;;;;4966145;28;20026;-67
2022/05/03 00:32:20;;;;;;;6.32;5.53;;;13.60;95.90;;;;;;4965463;28;20050;-68
2022/05/03 00:34:47;;;;;;;7.40;4.85;;;13.60;95.90;;;;;;4967909;28;20503;-67
2022/05/03 00:37:13;;;;;;;8.25;5.25;;;13.60;96.10;;;;;;4968603;28;20039;-68
2022/05/03 00:39:39;;;;;;;6.55;5.90;;;13.50;96.10;;;;;;4966169;28;20031;-67
2022/05/03 00:42:23;;;;;;;5.65;4.97;;;13.50;96.00;;;;;;4968053;28;20031;-68
2022/05/03 00:45:00;;;;;;;5.53;4.80;;;13.50;96.10;;;;;;4964103;28;20066;-67
2022/05/03 00:47:29;;;;;;;8.48;5.40;;;13.40;95.70;;;;;;4967966;28;20434;-68
2022/05/03 00:49:54;;;;;;;7.65;4.93;;;13.40;96.30;;;;;;4963902;28;20038;-68
2022/05/03 00:52:37;;;;;;;5.70;4.60;;;13.30;96.40;;;;;;4965120;28;20027;-68
2022/05/03 00:55:09;;;;;;;10.07;5.25;;;13.30;96.30;;;;;;4966644;28;20066;-68
2022/05/03 00:57:43;;;;;;;7.95;4.95;;;13.30;96.30;;;;;;4967949;28;20039;-68
2022/05/03 01:00:14;;;;;;;6.13;5.47;;;13.30;95.70;;;;;;4968774;28;20031;-68
2022/05/03 01:03:07;;;;;;;8.00;5.97;;;13.30;96.10;;;;;;4969600;28;20035;-68
2022/05/03 01:05:53;;;;;;;7.30;5.40;;;13.20;96.30;;;;;;4967584;28;20027;-68
2022/05/03 01:08:46;;;;;;;7.65;5.35;;;13.20;96.40;;;;;;4965184;28;20043;-68
2022/05/03 01:11:19;;;;;;;6.50;4.85;;;13.10;96.50;;;;;;4967273;28;20088;-68
2022/05/03 01:13:52;;;;;;;8.20;5.80;;;13.10;96.60;;;;;;4962427;28;20468;-68
2022/05/03 01:16:55;;;;;;;5.85;4.75;;;13.00;96.00;;;;;;4961845;28;20027;-67
2022/05/03 01:19:37;;;;;;;5.90;5.22;;;12.80;96.00;;;;;;4966415;28;20092;-69
2022/05/03 01:22:21;;;;;;;8.77;5.78;;;12.90;96.50;;;;;;4966931;28;20022;-68
2022/05/03 01:25:26;;;;;;;6.95;6.00;;;12.90;96.20;;;;;;4966077;28;20499;-68
2022/05/03 01:28:05;;;;;;;7.32;5.60;;;12.80;96.30;;;;;;4968566;28;20019;-68
2022/05/03 01:30:31;;;;;;;7.65;5.63;;;12.80;97.00;;;;;;4967793;28;20113;-68
2022/05/03 01:33:08;;;;;;;7.40;5.25;;;12.70;97.20;;;;;;4967098;28;20246;-68
2022/05/03 01:35:38;;;;;;;10.38;5.35;;;12.70;96.80;;;;;;4963955;28;20027;-68
2022/05/03 01:38:06;;;;;;;7.80;5.80;;;12.70;97.00;;;;;;4966676;28;20183;-68
2022/05/03 01:40:59;;;;;;;6.28;5.57;;;12.70;96.80;;;;;;4963856;28;20027;-67
2022/05/03 01:43:43;;;;;;;7.53;5.70;;;12.60;96.30;;;;;;4967413;28;20476;-68
2022/05/03 01:46:29;;;;;;;8.13;5.30;;;12.70;96.50;;;;;;4965527;28;20084;-68
2022/05/03 01:52:33;;;;;;;6.93;5.40;;;12.60;96.80;;;;;;4962585;28;20042;-68
2022/05/03 01:55:17;;;;;;;8.90;6.22;;;12.60;96.50;;;;;;4964216;28;20027;-68
2022/05/03 01:58:12;;;;;;;6.10;5.13;;;12.60;96.60;;;;;;4966637;28;20047;-68
2022/05/03 02:00:40;;;;;;;7.70;5.50;;;12.50;96.50;;;;;;4961986;28;20035;-68
2022/05/03 02:03:29;;;;;;;7.32;5.13;;;12.40;96.70;;;;;;4967355;28;20342;-68
2022/05/03 02:06:02;;;;;;;5.97;4.88;;;12.30;97.30;;;;;;4965735;28;20023;-68
2022/05/03 02:08:40;;;;;;;6.32;4.65;;;12.10;97.70;;;;;;4964810;28;20475;-68
2022/05/03 02:11:24;;;;;;;6.30;5.18;;;12.10;97.40;;;;;;4963652;28;20027;-68
2022/05/03 02:16:42;;;;;;;6.60;5.22;;;12.20;96.80;;;;;;4965514;28;20076;-68
2022/05/03 02:19:24;;;;;;;5.85;5.35;;;12.20;97.40;;;;;;4966281;28;20059;-68
2022/05/03 02:22:17;;;;;;;7.03;5.18;;;12.20;96.70;;;;;;4960072;28;20518;-68
2022/05/03 02:25:14;;;;;;;6.05;5.43;;;12.10;96.20;;;;;;4964191;28;20031;-68
2022/05/03 02:28:06;;;;;;;7.30;4.85;;;12.10;97.30;;;;;;4965411;28;20023;-68
2022/05/03 02:30:33;;;;;;;6.68;4.80;;;12.10;96.90;;;;;;4957063;28;20070;-68
2022/05/03 02:33:20;;;;;;;6.28;4.65;;;12.10;97.40;;;;;;4967698;28;20035;-67
2022/05/03 02:35:51;;;;;;;5.93;5.30;;;12.00;96.90;;;;;;4968401;28;20019;-68
2022/05/03 02:38:24;;;;;;;5.90;5.32;;;12.00;97.20;;;;;;4967507;28;20043;-67
2022/05/03 02:40:52;;;;;;;5.50;4.88;;;12.00;97.30;;;;;;4964489;28;20020;-67
2022/05/03 02:43:20;;;;;;;6.10;4.95;;;12.00;97.20;;;;;;4962490;28;20168;-67
2022/05/03 02:45:56;;;;;;;7.93;5.57;;;11.90;96.60;;;;;;4965185;28;20109;-67
2022/05/03 02:48:38;;;;;;;7.93;5.55;;;11.90;96.70;;;;;;4959845;28;20030;-67
2022/05/03 02:51:07;;;;;;;6.25;5.22;;;11.80;96.50;;;;;;4967691;28;20495;-67
2022/05/03 02:53:35;;;;;;;7.63;5.30;;;11.80;96.60;;;;;;4978164;28;20027;-67
2022/05/03 02:56:27;;;;;;;8.30;5.93;;;11.80;97.40;;;;;;4965184;28;20076;-68
2022/05/03 02:59:04;;;;;;;8.27;6.28;;;11.80;97.40;;;;;;4963882;28;20051;-68
2022/05/03 03:01:48;;;;;;;6.25;5.20;;;11.80;97.10;;;;;;4964695;28;20384;-68
2022/05/03 03:04:37;;;;;;;7.43;4.90;;;11.70;96.50;;;;;;4962506;28;20061;-68
2022/05/03 03:07:04;;;;;;;6.40;5.20;;;11.70;97.30;;;;;;4964310;28;20026;-68
2022/05/03 03:09:44;;;;;;;5.95;5.10;;;11.60;96.90;;;;;;4962185;28;20043;-68
2022/05/03 03:12:42;;;;;;;10.65;5.60;;;11.50;97.20;;;;;;4964326;28;20471;-68
2022/05/03 03:15:09;;;;;;;8.60;5.78;;;11.50;97.10;;;;;;4964799;28;20395;-67
2022/05/03 03:17:43;;;;;;;5.93;5.32;;;11.40;97.50;;;;;;4967414;28;20115;-68
2022/05/03 03:20:13;;;;;;;7.20;5.13;;;11.50;97.30;;;;;;4967939;28;20088;-68
2022/05/03 03:22:40;;;;;;;6.97;5.25;;;11.40;96.80;;;;;;4965021;28;20041;-68
2022/05/03 03:25:08;;;;;;;5.47;4.90;;;11.40;97.50;;;;;;4968280;28;20041;-68
2022/05/03 03:27:35;;;;;;;12.70;5.47;;;11.30;97.50;;;;;;4968208;28;20450;-68
2022/05/03 03:30:04;;;;;;;11.23;5.40;;;11.30;97.10;;;;;;4965403;28;20023;-68
2022/05/03 03:32:30;;;;;;;5.97;5.10;;;11.30;97.60;;;;;;4963787;28;20027;-68
2022/05/03 03:34:58;;;;;;;8.00;5.18;;;11.30;97.40;;;;;;4963570;28;20444;-68
2022/05/03 03:37:27;;;;;;;7.35;5.70;;;11.20;97.10;;;;;;4959683;28;20043;-68
2022/05/03 03:39:53;;;;;;;8.13;5.32;;;11.20;97.70;;;;;;4969141;28;20035;-68
2022/05/03 03:42:19;;;;;;;8.35;6.20;;;11.20;97.00;;;;;;4967669;28;20485;-68
2022/05/03 03:44:46;;;;;;;8.68;5.90;;;11.10;96.70;;;;;;4966303;28;20435;-68
2022/05/03 03:47:13;;;;;;;10.00;5.88;;;11.10;97.60;;;;;;4966739;28;20451;-68
2022/05/03 03:49:39;;;;;;;24.65;6.80;;;11.10;97.70;;;;;;4970902;28;20065;-69
2022/05/03 03:52:07;;;;;;;10.25;6.03;;;11.00;97.70;;;;;;4971270;28;20019;-68
2022/05/03 03:54:33;;;;;;;12.32;6.88;;;11.00;97.60;;;;;;4966058;28;21188;-69
2022/05/03 03:57:00;;;;;;;9.30;7.07;;;11.00;98.20;;;;;;4972208;28;20027;-68
2022/05/03 03:59:30;;;;;;;6.93;5.75;;;10.90;98.10;;;;;;4971262;28;20023;-67
2022/05/03 04:02:00;;;;;;;7.63;6.80;;;10.80;98.70;;;;;;4968635;28;20023;-67
2022/05/03 04:04:31;;;;;;;7.25;5.85;;;10.80;99.00;;;;;;4966570;28;20034;-67
2022/05/03 04:06:59;;;;;;;7.45;5.72;;;10.70;98.70;;;;;;4968537;28;20102;-68
2022/05/03 04:09:25;;;;;;;8.65;6.30;;;10.70;98.70;;;;;;4968794;28;20029;-68
2022/05/03 04:11:50;;;;;;;8.18;5.72;;;10.60;99.00;;;;;;4972369;28;20023;-68
2022/05/03 04:14:16;;;;;;;7.07;6.43;;;10.60;99.30;;;;;;4966118;28;20503;-68
2022/05/03 04:16:42;;;;;;;9.85;7.63;;;10.60;99.10;;;;;;4966312;28;20042;-68
2022/05/03 04:19:08;;;;;;;9.57;7.35;;;10.60;98.70;;;;;;4968880;28;20495;-67
2022/05/03 04:21:34;;;;;;;11.52;7.55;;;10.50;99.20;;;;;;4968500;28;20026;-68
2022/05/03 04:24:00;;;;;;;11.35;7.70;;;10.50;99.30;;;;;;4971715;28;20372;-68
2022/05/03 04:26:27;;;;;;;8.73;7.38;;;10.50;99.10;;;;;;4965929;28;20112;-68
2022/05/03 04:28:57;;;;;;;8.52;6.53;;;10.50;98.80;;;;;;4967578;28;20030;-68
2022/05/03 04:31:33;;;;;;;11.60;7.85;;;10.50;98.60;;;;;;4967368;28;20038;-68
2022/05/03 04:34:00;;;;;;;14.27;7.65;;;10.40;99.30;;;;;;4968555;28;20030;-68
2022/05/03 04:36:26;;;;;;;12.38;7.47;;;10.40;99.40;;;;;;4964936;28;20019;-68
2022/05/03 04:38:52;;;;;;;10.10;6.80;;;10.40;99.00;;;;;;4960366;28;20515;-68
2022/05/03 04:41:20;;;;;;;9.57;7.22;;;10.50;98.80;;;;;;4968137;28;20117;-68
2022/05/03 04:43:46;;;;;;;9.52;6.85;;;10.50;98.90;;;;;;4971155;28;20050;-67
2022/05/03 04:46:12;;;;;;;9.32;7.03;;;10.50;99.40;;;;;;4970501;28;20456;-68
2022/05/03 04:48:37;;;;;;;10.60;8.07;;;10.50;99.00;;;;;;4971069;28;20034;-68
2022/05/03 04:51:03;;;;;;;12.27;7.68;;;10.50;98.20;;;;;;4968968;28;20102;-68
2022/05/03 04:53:29;;;;;;;12.25;7.15;;;10.50;99.00;;;;;;4968123;28;20358;-68
2022/05/03 04:55:54;;;;;;;7.47;6.18;;;10.50;99.50;;;;;;4967419;28;20118;-68
2022/05/03 04:58:20;;;;;;;9.85;6.43;;;10.50;99.60;;;;;;4968976;28;20442;-68
2022/05/03 05:00:45;;;;;;;12.60;7.68;;;10.40;99.90;;;;;;4964450;28;20051;-67
2022/05/03 05:03:11;;;;;;;10.80;6.75;;;10.40;99.20;;;;;;4965417;28;20035;-67
2022/05/03 05:05:37;;;;;;;11.57;7.65;;;10.40;99.90;;;;;;4964174;28;20085;-67
2022/05/03 05:08:07;;;;;;;10.52;7.57;;;10.40;99.90;;;;;;4965891;28;20031;-67
2022/05/03 05:10:33;;;;;;;9.98;6.88;;;10.50;99.80;;;;;;4963965;28;20032;-68
2022/05/03 05:13:00;;;;;;;11.00;7.38;;;10.50;99.70;;;;;;4963751;28;20035;-69
2022/05/03 05:15:29;;;;;;;11.10;7.35;;;10.30;99.90;;;;;;4967294;28;20069;-67
2022/05/03 05:17:56;;;;;;;14.20;7.88;;;10.30;99.80;;;;;;4964708;28;20038;-67
2022/05/03 05:20:23;;;;;;;9.13;7.60;;;10.40;99.70;;;;;;4968826;28;20076;-68
2022/05/03 05:22:49;;;;;;;11.93;7.80;;;10.40;99.20;;;;;;4967735;28;20038;-67
2022/05/03 05:25:14;;;;;;;11.98;7.32;;;10.50;99.90;;;;;;4966330;28;20415;-68
2022/05/03 05:27:40;;;;;;;9.52;7.47;;;10.50;99.80;;;;;;4965544;28;20113;-67
2022/05/03 05:30:07;;;;;;;7.55;6.32;;;10.60;99.90;;;;;;4967321;28;20027;-67
2022/05/03 05:32:34;;;;;;;14.20;8.40;;;10.70;99.90;;;;;;4964113;28;20031;-68
2022/05/03 05:35:00;;;;;;;10.00;7.13;;;10.70;99.90;;;;;;4969869;28;20027;-67
2022/05/03 05:37:26;;;;;;;13.52;7.55;;;10.70;99.90;;;;;;4969942;28;20671;-68
2022/05/03 05:39:52;;;;;;;9.73;8.30;;;10.70;99.90;;;;;;4969222;28;20106;-68
2022/05/03 05:42:17;;;;;;;16.77;8.32;;;10.80;99.90;;;;;;4966672;28;20496;-68
2022/05/03 05:44:43;;;;;;;11.15;7.65;;;10.80;99.90;;;;;;4964624;28;20027;-68
2022/05/03 05:47:08;;;;;;;12.05;7.50;;;10.80;99.90;;;;;;4962865;28;20438;-68
2022/05/03 05:49:34;;;;;;;9.15;6.97;;;10.80;99.90;;;;;;4967830;28;20031;-68
2022/05/03 05:54:45;;;;;;;9.15;7.30;;;10.90;99.90;;;;;;4969024;28;20041;-68
2022/05/03 05:57:11;;;;;;;7.97;6.55;;;11.00;99.90;;;;;;4970814;28;20026;-68
2022/05/03 05:59:36;;;;;;;10.70;6.97;;;11.00;99.90;;;;;;4969062;28;20578;-68
2022/05/03 06:02:02;;;;;;;9.73;6.80;;;11.10;99.90;;;;;;4961771;28;20073;-67
2022/05/03 06:04:28;;;;;;;9.32;6.72;;;11.00;99.90;;;;;;4963701;28;20035;-68
2022/05/03 06:06:54;;;;;;;10.73;7.18;;;11.10;99.90;;;;;;4968983;28;20433;-68
2022/05/03 06:09:20;;;;;;;11.68;7.03;;;11.10;99.90;;;;;;4969575;28;20435;-67
2022/05/03 06:11:46;;;;;;;10.90;8.00;;;11.20;99.90;;;;;;4965362;28;20026;-68
2022/05/03 06:14:11;;;;;;;9.55;7.40;;;11.20;99.90;;;;;;4965654;28;20046;-68
2022/05/03 06:16:51;;;;;;;10.85;7.55;;;11.20;99.90;;;;;;4964745;28;20057;-68
2022/05/03 06:19:16;;;;;;;11.40;7.28;;;11.30;99.90;;;;;;4966865;28;20034;-68
2022/05/03 06:21:42;;;;;;;8.20;6.75;;;11.40;99.90;;;;;;4962316;28;20027;-68
2022/05/03 06:24:08;;;;;;;9.43;6.85;;;11.30;99.90;;;;;;4964988;28;20031;-68
2022/05/03 06:26:34;;;;;;;10.35;7.13;;;11.40;99.90;;;;;;4965219;28;20048;-67
2022/05/03 06:29:08;;;;;;;10.13;7.20;;;11.50;99.90;;;;;;4969497;28;20482;-68
2022/05/03 06:31:38;;;;;;;10.25;6.95;;;11.50;99.90;;;;;;4963268;28;20463;-68
2022/05/03 06:34:08;;;;;;;10.23;7.78;;;11.50;99.90;;;;;;4968850;28;20029;-68
2022/05/03 06:36:35;;;;;;;10.38;6.93;;;11.50;99.90;;;;;;4967089;28;20019;-68
2022/05/03 06:39:02;;;;;;;10.35;6.90;;;11.60;99.90;;;;;;4965209;28;20137;-68
2022/05/03 06:41:27;;;;;;;9.52;6.65;;;11.70;99.90;;;;;;4966894;28;20035;-68
2022/05/03 06:43:53;;;;;;;9.20;6.63;;;11.80;99.90;;;;;;4968725;28;20042;-68
2022/05/03 06:46:20;;;;;;;10.93;7.25;;;11.90;99.90;;;;;;4969363;28;20019;-68
2022/05/03 06:48:45;;;;;;;10.30;6.50;;;12.00;99.90;;;;;;4968018;28;20031;-68
2022/05/03 06:51:11;;;;;;;11.48;6.88;;;11.90;99.90;;;;;;4968540;28;20035;-68
2022/05/03 06:53:37;;;;;;;8.20;7.03;;;12.00;99.90;;;;;;4956516;28;20285;-68
2022/05/03 06:56:02;;;;;;;9.68;5.93;;;12.10;99.90;;;;;;4962126;28;20156;-68
2022/05/03 06:58:28;;;;;;;9.38;7.25;;;12.10;99.90;;;;;;4958010;28;20406;-69
2022/05/03 07:00:54;;;;;;;10.38;7.15;;;12.20;99.90;;;;;;4964090;28;20027;-68
2022/05/03 07:03:20;;;;;;;9.73;7.03;;;12.40;99.90;;;;;;4965309;28;20026;-68
2022/05/03 07:05:45;;;;;;;7.47;6.13;;;12.50;99.90;;;;;;4962569;28;20017;-68
2022/05/03 07:08:11;;;;;;;8.05;6.43;;;12.60;99.90;;;;;;4954949;28;20058;-68
2022/05/03 07:10:37;;;;;;;11.57;6.68;;;12.70;99.90;;;;;;4965443;28;20510;-68
2022/05/03 07:13:04;;;;;;;10.75;6.70;;;12.80;99.90;;;;;;4961076;28;20046;-68
2022/05/03 07:15:30;;;;;;;7.85;6.63;;;12.90;99.90;;;;;;4965288;28;20153;-68
2022/05/03 07:23:26;;;;;;;8.90;6.03;;;13.30;99.90;;;;;;4966202;28;20038;-68
2022/05/03 07:25:53;;;;;;;8.27;6.25;;;13.30;99.80;;;;;;4964117;28;20498;-68
2022/05/03 07:28:18;;;;;;;7.00;5.60;;;13.50;99.60;;;;;;4965909;28;20022;-68
2022/05/03 07:30:44;;;;;;;9.40;7.07;;;13.60;98.70;;;;;;4955911;28;20049;-68
2022/05/03 07:33:09;;;;;;;8.32;5.78;;;13.70;99.00;;;;;;4966057;28;20118;-68
2022/05/03 07:35:35;;;;;;;7.90;6.22;;;13.90;98.90;;;;;;4962743;28;20472;-68
2022/05/03 07:38:01;;;;;;;7.95;5.03;;;14.00;98.20;;;;;;4964597;28;20038;-69
2022/05/03 07:40:28;;;;;;;5.25;4.18;;;14.10;96.40;;;;;;4964033;28;20436;-68
2022/05/03 07:42:53;;;;;;;5.65;4.75;;;14.30;95.90;;;;;;4977126;28;20034;-68
2022/05/03 07:45:19;;;;;;;7.90;4.82;;;14.40;95.30;;;;;;4963662;28;20069;-68
2022/05/03 07:47:45;;;;;;;5.60;4.63;;;14.40;95.70;;;;;;4961207;28;20026;-68
2022/05/03 07:50:10;;;;;;;5.00;4.30;;;14.60;94.60;;;;;;4965947;28;20519;-69
2022/05/03 07:52:36;;;;;;;9.02;4.30;;;14.80;94.60;;;;;;4966950;28;20046;-68
2022/05/03 07:55:05;;;;;;;4.05;3.55;;;14.90;93.70;;;;;;4965494;28;20030;-68
2022/05/03 07:57:31;;;;;;;5.22;3.97;;;15.00;93.20;;;;;;4959337;28;20070;-68
2022/05/03 07:59:57;;;;;;;4.97;4.47;;;15.00;94.50;;;;;;4958537;28;20587;-68
2022/05/03 08:02:23;;;;;;;4.43;3.65;;;15.00;94.00;;;;;;4967099;28;20038;-68
2022/05/03 08:04:53;;;;;;;5.93;3.50;;;15.00;92.20;;;;;;4967951;28;20019;-68
2022/05/03 08:07:20;;;;;;;4.85;3.78;;;15.00;91.10;;;;;;4964272;28;20042;-68
2022/05/03 08:09:46;;;;;;;5.13;3.83;;;15.00;91.90;;;;;;4960798;28;20031;-68
2022/05/03 08:12:12;;;;;;;7.15;3.88;;;15.10;92.20;;;;;;4961476;28;20425;-68
2022/05/03 08:14:38;;;;;;;5.57;4.43;;;15.20;92.80;;;;;;4965216;28;20050;-68
2022/05/03 08:17:04;;;;;;;6.05;4.57;;;15.40;92.30;;;;;;4965592;28;20027;-68
2022/05/03 08:19:30;;;;;;;6.53;5.00;;;15.50;92.10;;;;;;4964681;28;20544;-68
2022/05/03 08:21:56;;;;;;;5.30;4.80;;;15.60;91.50;;;;;;4967508;28;20058;-69
2022/05/03 08:24:23;;;;;;;9.45;4.93;;;15.80;92.70;;;;;;4965909;28;20387;-68
2022/05/03 08:26:48;;;;;;;9.57;4.43;;;15.90;91.10;;;;;;4970377;28;20076;-68
2022/05/03 08:29:14;;;;;;;6.13;4.13;;;16.10;92.00;;;;;;4971019;28;20077;-68
2022/05/03 08:31:40;;;;;;;4.97;3.92;;;16.40;91.90;;;;;;4972350;28;20022;-68
2022/05/03 08:34:06;;;;;;;5.10;3.78;;;16.60;92.00;;;;;;4961335;28;20106;-68
2022/05/03 08:36:32;;;;;;;4.50;4.10;;;16.70;91.20;;;;;;4966911;28;20550;-68
2022/05/03 08:42:01;;;;;;;4.43;3.72;;;17.00;91.40;;;;;;4962440;28;20077;-68
2022/05/03 08:44:31;;;;;;;4.88;3.75;;;17.20;90.60;;;;;;4970095;28;20531;-68
2022/05/03 08:46:58;;;;;;;4.95;3.15;;;17.30;90.90;;;;;;4966442;28;20021;-68
2022/05/03 08:49:32;;;;;;;4.93;2.88;;;17.30;90.40;;;;;;4959689;28;20098;-68
2022/05/03 08:52:02;;;;;;;4.80;3.38;;;17.60;90.30;;;;;;4966839;28;20023;-68
2022/05/03 08:54:28;;;;;;;4.18;3.78;;;17.70;90.40;;;;;;4965394;28;20034;-68
2022/05/03 08:56:55;;;;;;;6.47;3.80;;;17.80;89.70;;;;;;4971444;28;20102;-69
2022/05/03 08:59:21;;;;;;;3.50;3.20;;;17.60;89.40;;;;;;4968310;28;20054;-68
2022/05/03 09:01:48;;;;;;;6.10;3.72;;;17.70;87.90;;;;;;4969185;28;20076;-68
2022/05/03 09:04:14;;;;;;;4.35;3.88;;;17.90;90.30;;;;;;4967348;28;20491;-68
2022/05/03 09:06:48;;;;;;;4.13;3.72;;;18.00;87.10;;;;;;4971470;28;20023;-69
2022/05/03 09:09:15;;;;;;;4.30;3.90;;;18.10;88.00;;;;;;4969337;28;20109;-68
2022/05/03 09:11:49;;;;;;;4.30;3.90;;;18.20;87.20;;;;;;4968153;28;20031;-68
2022/05/03 09:14:34;;;;;;;6.55;4.30;;;18.20;87.60;;;;;;4965858;28;20495;-68
2022/05/03 09:16:59;;;;;;;6.80;4.40;;;18.40;88.50;;;;;;4964486;28;20023;-68
2022/05/03 09:19:25;;;;;;;4.78;4.28;;;18.40;87.80;;;;;;4968979;28;20038;-68
2022/05/03 09:24:55;;;;;;;9.20;3.97;;;18.90;86.40;;;;;;4964713;28;20403;-68
2022/05/03 09:27:22;;;;;;;9.70;3.35;;;18.90;85.20;;;;;;4964841;28;20031;-68
2022/05/03 09:30:06;;;;;;;9.32;4.80;;;19.10;85.50;;;;;;4967978;28;20506;-68
2022/05/03 09:32:43;;;;;;;5.65;4.05;;;19.00;84.00;;;;;;4969411;28;20063;-68
2022/05/03 09:35:34;;;;;;;3.35;3.05;;;19.20;84.20;;;;;;4966844;28;20030;-69
2022/05/03 09:38:03;;;;;;;6.05;3.72;;;19.30;85.30;;;;;;4962115;28;20035;-68
2022/05/03 09:40:34;;;;;;;5.72;3.60;;;19.20;84.10;;;;;;4969071;28;20065;-68
2022/05/03 09:42:59;;;;;;;7.07;4.20;;;19.40;83.80;;;;;;4962553;28;20047;-68
2022/05/03 09:45:26;;;;;;;4.38;3.97;;;19.40;83.20;;;;;;4967895;28;20031;-68
2022/05/03 09:47:54;;;;;;;5.03;3.80;;;19.50;82.60;;;;;;4961153;28;20022;-68
2022/05/03 09:50:29;;;;;;;4.78;3.45;;;19.70;82.80;;;;;;4963817;28;20023;-68
2022/05/03 09:53:10;;;;;;;10.27;4.45;;;19.60;83.20;;;;;;4968842;28;20044;-68
2022/05/03 09:55:37;;;;;;;4.78;4.30;;;19.60;82.20;;;;;;4965333;28;20030;-68
2022/05/03 09:58:05;;;;;;;5.57;3.90;;;19.70;81.10;;;;;;4966491;28;20068;-69
2022/05/03 10:00:33;;;;;;;4.25;3.88;;;19.60;82.70;;;;;;4967380;28;20379;-68
2022/05/03 10:02:59;;;;;;;5.72;3.90;;;20.00;83.30;;;;;;4967265;28;20019;-69
2022/05/03 10:05:25;;;;;;;6.97;4.57;;;19.90;81.10;;;;;;4967611;28;20491;-68
2022/05/03 10:07:52;;;;;;;4.70;4.07;;;19.90;80.60;;;;;;4964405;28;20101;-68
2022/05/03 10:10:19;;;;;;;8.68;3.83;;;19.90;81.50;;;;;;4959030;28;20133;-69
2022/05/03 10:12:50;;;;;;;6.25;3.53;;;20.10;82.10;;;;;;4963246;28;20039;-70
2022/05/03 10:21:16;;;;;;;5.55;3.92;;;20.80;79.60;;;;;;4965136;28;20046;-69
2022/05/03 10:24:10;;;;;;;5.40;3.88;;;20.90;80.80;;;;;;4966122;28;20186;-68
2022/05/03 10:26:56;;;;;;;5.93;4.28;;;21.10;81.00;;;;;;4966547;28;20555;-68
2022/05/03 10:29:25;;;;;;;4.40;3.80;;;21.00;80.90;;;;;;4968332;28;20098;-68
2022/05/03 10:32:03;;;;;;;4.07;3.67;;;21.00;78.80;;;;;;4964306;28;20104;-68
2022/05/03 10:34:43;;;;;;;7.72;3.92;;;21.20;82.70;;;;;;4964876;28;20054;-68
2022/05/03 10:37:35;;;;;;;3.78;3.40;;;21.40;79.30;;;;;;4963620;28;20042;-68
2022/05/03 10:40:15;;;;;;;5.43;4.05;;;21.30;80.80;;;;;;4969088;28;20035;-69
2022/05/03 10:42:41;;;;;;;6.95;4.38;;;21.20;79.00;;;;;;4970719;28;20030;-68
2022/05/03 10:45:11;;;;;;;4.60;4.20;;;21.40;78.20;;;;;;4959878;28;20113;-68
2022/05/03 10:47:39;;;;;;;5.40;3.38;;;21.40;78.80;;;;;;4966073;28;20205;-69
2022/05/03 10:50:11;;;;;;;4.43;2.28;;;21.40;78.10;;;;;;4966731;28;20395;-68
2022/05/03 10:52:37;;;;;;;2.70;2.50;;;21.30;78.10;;;;;;4967583;28;20391;-69
2022/05/03 10:55:07;;;;;;;5.03;3.25;;;21.50;79.70;;;;;;4965312;28;20022;-69
2022/05/03 10:57:53;;;;;;;2.95;2.65;;;21.50;77.60;;;;;;4963467;28;20027;-69
2022/05/03 11:00:57;;;;;;;3.33;2.80;;;21.40;78.90;;;;;;4957683;28;20080;-68
2022/05/03 11:03:23;;;;;;;3.72;2.83;;;21.70;78.40;;;;;;4967893;28;20039;-69
2022/05/03 11:06:20;;;;;;;4.45;3.40;;;21.90;77.30;;;;;;4982490;28;20040;-69
2022/05/03 11:08:58;;;;;;;3.08;2.80;;;21.80;78.90;;;;;;4962542;28;20486;-69
2022/05/03 11:11:37;;;;;;;3.80;3.17;;;22.10;77.00;;;;;;4967645;28;20510;-68
2022/05/03 11:14:04;;;;;;;2.70;2.50;;;22.30;77.00;;;;;;4969674;28;20042;-68
2022/05/03 11:16:34;;;;;;;2.63;2.28;;;22.30;75.10;;;;;;4967262;28;20026;-68
2022/05/03 11:19:12;;;;;;;6.35;2.80;;;22.30;74.70;;;;;;4964367;28;20035;-69
2022/05/03 11:21:38;;;;;;;7.35;3.28;;;22.40;75.50;;;;;;4968709;28;20483;-68
2022/05/03 11:24:05;;;;;;;3.25;3.03;;;22.30;79.70;;;;;;4958177;28;20027;-68
2022/05/03 11:26:31;;;;;;;5.75;3.53;;;22.40;79.50;;;;;;4957706;28;20073;-68
2022/05/03 11:28:58;;;;;;;3.50;3.20;;;22.50;76.60;;;;;;4965940;28;20421;-68
2022/05/03 11:31:26;;;;;;;3.60;3.30;;;22.10;75.30;;;;;;4968079;28;20488;-68
2022/05/03 11:33:55;;;;;;;9.77;3.45;;;22.30;76.40;;;;;;4962672;28;20015;-70
2022/05/03 11:36:21;;;;;;;4.30;3.13;;;22.10;75.60;;;;;;4961084;28;20046;-69
2022/05/03 11:38:52;;;;;;;3.00;2.70;;;22.00;75.90;;;;;;4962552;28;20399;-69
2022/05/03 11:41:22;;;;;;;5.95;3.53;;;21.80;76.00;;;;;;4966804;28;20032;-69
2022/05/03 11:43:48;;;;;;;7.05;3.20;;;22.00;75.50;;;;;;4964258;28;20046;-70
2022/05/03 11:46:18;;;;;;;3.45;2.97;;;22.30;76.90;;;;;;4962046;28;20031;-70
2022/05/03 11:48:45;;;;;;;3.47;3.00;;;22.70;74.60;;;;;;4962826;28;20047;-70
2022/05/03 11:56:45;;;;;;;9.50;5.65;;;22.30;76.90;;;;;;4963415;28;20045;-71
2022/05/03 11:59:11;;;;;;;5.03;4.55;;;22.00;78.30;;;;;;4963866;28;20035;-71
2022/05/03 12:01:37;;;;;;;5.90;4.55;;;21.70;79.10;;;;;;4968025;28;20515;-71
2022/05/03 12:04:05;;;;;;;6.65;5.95;;;21.50;79.50;;;;;;4966263;28;20117;-71
2022/05/03 12:06:45;;;;;;;8.27;5.60;;;21.30;80.40;;;;;;4970634;28;20429;-71
2022/05/03 12:09:17;;;;;;;5.97;5.03;;;21.10;80.30;;;;;;4970877;28;20058;-71
2022/05/03 12:14:48;;;;;;;9.70;4.65;;;21.70;80.20;;;;;;4952118;28;20043;-71
2022/05/03 12:17:14;;;;;;;5.85;4.38;;;22.00;79.50;;;;;;4967062;28;20525;-70
2022/05/03 12:19:40;;;;;;;6.60;5.10;;;22.10;80.00;;;;;;4970671;28;20045;-70
2022/05/03 12:22:12;;;;;;;6.85;4.50;;;22.30;78.60;;;;;;4967276;28;20023;-70
2022/05/03 12:24:41;;;;;;;7.20;4.40;;;22.60;79.70;;;;;;4965858;28;20055;-71
2022/05/03 12:27:11;;;;;;;5.32;4.82;;;22.90;77.20;;;;;;4968472;28;20019;-70
2022/05/03 12:29:45;;;;;;;11.77;4.40;;;22.90;80.00;;;;;;4970612;28;20031;-71
2022/05/03 12:32:18;;;;;;;5.53;3.63;;;22.90;77.60;;;;;;4968283;28;20058;-70
2022/05/03 12:34:58;;;;;;;4.05;3.40;;;22.50;76.70;;;;;;4964976;28;20031;-70
2022/05/03 12:37:24;;;;;;;3.85;3.47;;;22.20;77.90;;;;;;4966185;28;20031;-69
2022/05/03 12:39:50;;;;;;;5.70;4.03;;;21.80;77.90;;;;;;4963015;28;20057;-70
2022/05/03 12:42:15;;;;;;;5.40;4.53;;;21.60;80.60;;;;;;4964290;28;20023;-69
2022/05/03 12:44:57;;;;;;;4.90;4.05;;;21.40;81.20;;;;;;4972985;28;20084;-71
2022/05/03 12:47:23;;;;;;;7.40;4.28;;;21.20;80.60;;;;;;4968782;28;20388;-71
2022/05/03 12:49:50;;;;;;;4.40;4.00;;;21.20;80.50;;;;;;4962087;28;20540;-70
2022/05/03 12:52:16;;;;;;;5.40;4.38;;;21.10;81.00;;;;;;4962599;28;20061;-70
2022/05/03 12:54:43;;;;;;;5.38;4.10;;;20.90;81.60;;;;;;4970172;28;20027;-70
2022/05/03 12:59:55;;;;;;;6.15;3.88;;;21.20;82.10;;;;;;4966593;28;20041;-70
2022/05/03 13:02:22;;;;;;;5.45;4.88;;;21.70;79.90;;;;;;4968811;28;20023;-71
2022/05/03 13:04:48;;;;;;;7.43;4.80;;;21.90;79.00;;;;;;4967959;28;20019;-71
2022/05/03 13:07:14;;;;;;;6.47;4.60;;;21.80;79.30;;;;;;4972108;28;20030;-71
2022/05/03 13:09:39;;;;;;;7.53;3.95;;;21.90;80.60;;;;;;4963412;28;20027;-70
2022/05/03 13:12:05;;;;;;;7.25;4.68;;;22.10;81.50;;;;;;4968878;28;20537;-71
2022/05/03 13:14:31;;;;;;;5.53;4.20;;;22.00;80.20;;;;;;4971637;28;20401;-71
2022/05/03 13:16:58;;;;;;;5.55;4.03;;;22.20;80.80;;;;;;4966805;28;20034;-71
2022/05/03 13:19:24;;;;;;;5.05;3.35;;;22.20;79.30;;;;;;4967352;28;20494;-71
2022/05/03 13:21:51;;;;;;;8.40;4.75;;;22.30;79.50;;;;;;4971051;28;20011;-71
2022/05/03 13:24:17;;;;;;;6.78;3.88;;;22.00;79.40;;;;;;4958573;28;20145;-71
2022/05/03 13:26:43;;;;;;;8.38;3.92;;;21.80;80.70;;;;;;4968595;28;20032;-72
2022/05/03 13:29:14;;;;;;;7.63;4.95;;;21.80;80.30;;;;;;4964441;28;20031;-71
2022/05/03 13:31:40;;;;;;;9.57;5.27;;;21.70;80.60;;;;;;4962652;28;20030;-71
2022/05/03 13:34:08;;;;;;;5.70;4.53;;;21.70;80.30;;;;;;4966833;28;20021;-71
2022/05/03 13:42:03;;;;;;;9.77;4.65;;;21.40;81.60;;;;;;4967421;28;20073;-70
2022/05/03 13:44:29;;;;;;;6.80;4.30;;;21.50;80.70;;;;;;4956837;28;20104;-71
2022/05/03 13:46:54;;;;;;;4.85;4.13;;;21.50;81.40;;;;;;4969959;28;20021;-71